KGNV

Gainesville Regional Airport

Airport
ICAO code
KGNV
IATA Code
GNV
Summary
ICAO Region
NAM
ICAO Territory
Location

Gainesville, Florida

Serving
Gainesville
Elevation
152 ft
Coordinates
29° 41' 19" N , 82° 16' 16" W
KCC
Metar
KGNV 300853Z AUTO 00000KT 10SM CLR 18/15 A3006 RMK AO2 SLP176 T01780150 55003 $

Gainesville Regional Airport is a public use airport located three 3 nm northeast of the central business district of Gainesville, in Alachua County, Florida, USA.

Airport map

Aerial View

SKYbrary Partners:

Safety knowledge contributed by: